createdAt,value
2023-04-26T00:02:14.752Z,81.03
2023-04-26T00:05:39.288Z,81.99
2023-04-26T00:09:02.947Z,80.41
2023-04-26T00:12:27.244Z,81.56
2023-04-26T00:15:53.312Z,80.94
2023-04-26T00:19:18.176Z,81.24
2023-04-26T00:22:42.219Z,81.88
2023-04-26T00:26:07.133Z,81.36
2023-04-26T00:29:30.790Z,80.91
2023-04-26T00:32:56.768Z,80.54
2023-04-26T00:36:21.460Z,81.04
2023-04-26T00:39:45.441Z,82.09
2023-04-26T00:43:09.339Z,81.33
2023-04-26T00:46:33.514Z,81.27
2023-04-26T00:49:58.697Z,81.04
2023-04-26T00:53:22.915Z,81.42
2023-04-26T00:56:46.869Z,81.88
2023-04-26T01:00:12.306Z,82.21
2023-04-26T01:03:36.563Z,81.47
2023-04-26T01:07:03.159Z,81.55
2023-04-26T01:10:29.688Z,82.25
2023-04-26T01:13:54.188Z,81.99
2023-04-26T01:17:18.044Z,82.35
2023-04-26T01:20:42.143Z,82.66
2023-04-26T01:24:08.652Z,83.31
2023-04-26T01:27:34.709Z,83.96
2023-04-26T01:30:58.823Z,83.54
2023-04-26T01:34:23.384Z,83.51
2023-04-26T01:37:47.337Z,83.49
2023-04-26T01:41:13.061Z,84.02
2023-04-26T01:44:36.815Z,84.46
2023-04-26T01:48:01.822Z,84.90
2023-04-26T01:51:29.116Z,85.76
2023-04-26T01:54:53.633Z,85.82
2023-04-26T01:58:19.257Z,85.31
2023-04-26T02:01:44.481Z,84.88
2023-04-26T02:05:10.333Z,84.74
2023-04-26T02:08:33.966Z,84.07
2023-04-26T02:11:58.234Z,83.97
2023-04-26T02:15:24.183Z,83.39
2023-04-26T02:18:50.174Z,82.91
2023-04-26T02:22:14.509Z,83.21
2023-04-26T02:25:39.374Z,83.23
2023-04-26T02:29:04.109Z,82.98
2023-04-26T02:32:29.861Z,82.95
2023-04-26T02:35:54.681Z,83.30
2023-04-26T02:39:18.726Z,83.29
2023-04-26T02:42:43.105Z,83.48
2023-04-26T02:46:09.784Z,82.86
2023-04-26T02:49:36.087Z,82.93
2023-04-26T02:53:00.094Z,83.30
2023-04-26T02:56:25.407Z,83.59
2023-04-26T02:59:52.434Z,82.30
2023-04-26T03:03:17.629Z,82.34
2023-04-26T03:06:44.882Z,82.85
2023-04-26T03:10:10.814Z,82.38
2023-04-26T03:13:36.601Z,82.00
2023-04-26T03:17:02.419Z,82.67
2023-04-26T03:20:27.731Z,82.64
2023-04-26T03:23:54.764Z,82.42
2023-04-26T03:27:20.585Z,82.81
2023-04-26T03:30:45.507Z,82.79
2023-04-26T03:34:09.893Z,84.01
2023-04-26T03:37:34.593Z,83.96
2023-04-26T03:41:03.336Z,83.83
2023-04-26T03:44:30.509Z,83.60
2023-04-26T03:47:57.322Z,84.24
2023-04-26T03:51:22.806Z,84.15
2023-04-26T03:54:47.618Z,84.56
2023-04-26T03:58:13.361Z,85.42
2023-04-26T04:01:38.453Z,85.58
2023-04-26T04:05:04.100Z,85.06
2023-04-26T04:08:28.190Z,84.76
2023-04-26T04:11:52.134Z,85.03
2023-04-26T04:15:17.842Z,83.92
2023-04-26T04:18:42.753Z,83.65
2023-04-26T04:22:07.407Z,82.37
2023-04-26T04:25:33.322Z,81.56
2023-04-26T04:28:59.252Z,81.73
2023-04-26T04:32:26.659Z,81.04
2023-04-26T04:35:52.917Z,80.92
2023-04-26T04:39:18.940Z,80.85
2023-04-26T04:42:45.336Z,80.46
2023-04-26T04:46:12.699Z,80.13
2023-04-26T04:49:41.424Z,79.56
2023-04-26T04:53:06.276Z,78.97
2023-04-26T04:56:31.548Z,77.15
2023-04-26T04:59:55.278Z,77.33
2023-04-26T05:03:19.971Z,76.85
2023-04-26T05:06:47.172Z,75.87
2023-04-26T05:10:14.020Z,75.67
2023-04-26T05:13:39.056Z,74.87
2023-04-26T05:17:04.343Z,73.49
2023-04-26T05:20:30.154Z,73.15
2023-04-26T05:23:55.982Z,72.23
2023-04-26T05:27:21.413Z,72.26
2023-04-26T05:30:46.810Z,71.88
2023-04-26T05:34:12.700Z,71.04
2023-04-26T05:37:36.796Z,71.23
2023-04-26T05:41:02.109Z,70.90
2023-04-26T05:44:25.274Z,70.70
2023-04-26T05:47:48.904Z,70.17
2023-04-26T05:51:12.009Z,69.61
2023-04-26T05:54:35.076Z,69.36
2023-04-26T05:57:59.665Z,70.62
2023-04-26T06:01:23.543Z,70.10
2023-04-26T06:04:47.160Z,70.92
2023-04-26T06:08:11.531Z,69.50
2023-04-26T06:11:34.877Z,69.68
2023-04-26T06:14:59.913Z,68.61
2023-04-26T06:18:23.764Z,69.97
2023-04-26T06:21:46.924Z,68.75
2023-04-26T06:25:10.639Z,68.09
2023-04-26T06:28:33.552Z,66.37
2023-04-26T06:31:58.577Z,65.85
2023-04-26T06:35:23.570Z,64.49
2023-04-26T06:38:47.233Z,64.48
2023-04-26T06:42:10.513Z,63.79
2023-04-26T06:45:36.344Z,63.38
2023-04-26T06:49:00.873Z,61.54
2023-04-26T06:52:24.615Z,60.34
2023-04-26T06:55:47.369Z,61.26
2023-04-26T06:59:10.425Z,61.74
2023-04-26T07:02:33.209Z,60.08
2023-04-26T07:05:58.337Z,59.35
2023-04-26T07:09:21.057Z,59.59
2023-04-26T07:12:45.219Z,58.44
2023-04-26T07:16:08.608Z,58.56
2023-04-26T07:19:32.524Z,52.02
2023-04-26T07:22:57.204Z,51.41
2023-04-26T07:26:21.212Z,48.54
2023-04-26T07:29:44.331Z,48.29
2023-04-26T07:33:08.584Z,48.20
2023-04-26T07:36:32.218Z,49.67
2023-04-26T07:39:56.997Z,48.02
2023-04-26T07:43:20.145Z,47.92
2023-04-26T07:46:44.049Z,46.35
2023-04-26T07:50:08.531Z,43.91
2023-04-26T07:53:32.207Z,45.38
2023-04-26T07:56:56.628Z,45.95
2023-04-26T08:00:22.657Z,46.60
2023-04-26T08:03:46.283Z,45.38
2023-04-26T08:07:09.572Z,43.85
2023-04-26T08:10:33.180Z,44.65
2023-04-26T08:13:58.243Z,44.54
2023-04-26T08:17:21.733Z,43.17
2023-04-26T08:20:45.093Z,44.03
2023-04-26T08:24:08.860Z,44.53
2023-04-26T08:27:34.788Z,44.10
2023-04-26T08:30:59.528Z,43.27
2023-04-26T08:34:22.544Z,43.27
2023-04-26T08:37:46.534Z,44.93
2023-04-26T08:41:09.903Z,44.44
2023-04-26T08:44:33.878Z,43.48
2023-04-26T08:48:02.001Z,44.10
2023-04-26T08:51:27.679Z,44.56
2023-04-26T08:54:51.766Z,43.82
2023-04-26T08:58:15.134Z,42.04
2023-04-26T09:01:38.768Z,44.32
2023-04-26T09:05:04.012Z,41.80
2023-04-26T09:08:28.427Z,40.07
2023-04-26T09:11:56.702Z,40.64
2023-04-26T09:15:19.861Z,39.70
2023-04-26T09:18:49.480Z,38.62
2023-04-26T09:22:14.175Z,37.46
2023-04-26T09:25:37.959Z,37.44
2023-04-26T09:29:14.941Z,35.65
2023-04-26T09:32:48.605Z,36.31
2023-04-26T09:36:14.575Z,36.56
2023-04-26T09:39:43.076Z,37.82
2023-04-26T09:43:07.566Z,36.54
2023-04-26T09:46:31.050Z,38.32
2023-04-26T09:49:54.307Z,36.91
2023-04-26T09:53:31.222Z,36.38
2023-04-26T09:57:03.360Z,35.58
2023-04-26T10:00:27.140Z,33.75
2023-04-26T10:03:51.565Z,34.74
2023-04-26T10:07:16.166Z,33.42
2023-04-26T10:10:39.694Z,33.83
2023-04-26T10:14:04.277Z,34.58
2023-04-26T10:17:28.085Z,34.48
2023-04-26T10:20:53.810Z,34.45
2023-04-26T10:24:17.058Z,34.00
2023-04-26T10:27:52.921Z,34.11
2023-04-26T10:31:17.844Z,34.19
2023-04-26T10:34:41.792Z,34.01
2023-04-26T10:38:11.731Z,34.19
2023-04-26T10:41:40.144Z,32.28
2023-04-26T10:45:04.509Z,33.83
2023-04-26T10:48:32.996Z,36.21
2023-04-26T10:52:16.533Z,33.99
2023-04-26T10:55:43.275Z,33.05
2023-04-26T10:59:28.405Z,32.57
2023-04-26T11:03:00.009Z,32.46
2023-04-26T11:06:29.124Z,33.18
2023-04-26T11:09:52.184Z,32.03
2023-04-26T11:13:15.706Z,32.22
2023-04-26T11:16:38.983Z,31.96
2023-04-26T11:20:02.394Z,31.32
2023-04-26T11:23:28.827Z,31.70
2023-04-26T11:26:53.742Z,30.88
2023-04-26T11:30:17.292Z,30.97
2023-04-26T11:33:41.188Z,30.11
2023-04-26T11:37:05.227Z,31.54
2023-04-26T11:40:33.975Z,28.62
2023-04-26T11:43:57.465Z,29.66
2023-04-26T11:47:20.808Z,28.75
2023-04-26T11:50:44.049Z,29.21
2023-04-26T11:54:07.136Z,28.63
2023-04-26T11:57:32.353Z,29.85
2023-04-26T12:00:59.502Z,28.61
2023-04-26T12:04:30.217Z,29.10
2023-04-26T12:07:55.249Z,29.14
2023-04-26T12:11:19.130Z,29.23
2023-04-26T12:14:45.676Z,28.39
2023-04-26T12:18:10.709Z,26.99
2023-04-26T12:21:42.458Z,27.79
2023-04-26T12:25:07.064Z,29.15
2023-04-26T12:28:30.156Z,31.13
2023-04-26T12:31:55.196Z,30.50
2023-04-26T12:35:18.582Z,31.42
2023-04-26T12:38:41.654Z,30.66
2023-04-26T12:42:04.594Z,28.40
2023-04-26T12:45:28.476Z,27.53
2023-04-26T12:48:52.980Z,28.59
2023-04-26T12:52:16.144Z,28.25
2023-04-26T12:55:39.297Z,28.85
2023-04-26T12:59:02.461Z,30.14
2023-04-26T13:02:25.715Z,29.05
2023-04-26T13:05:51.043Z,28.25
2023-04-26T13:09:14.198Z,29.15
2023-04-26T13:12:37.774Z,30.69
2023-04-26T13:16:00.872Z,30.69
2023-04-26T13:19:24.311Z,29.93
2023-04-26T13:22:49.426Z,31.34
2023-04-26T13:26:16.428Z,32.33
2023-04-26T13:29:39.757Z,33.83
2023-04-26T13:33:03.047Z,33.45
2023-04-26T13:36:26.376Z,33.30
2023-04-26T13:39:51.371Z,33.09
2023-04-26T13:43:14.431Z,33.62
2023-04-26T13:46:37.545Z,33.84
2023-04-26T13:50:00.827Z,33.46
2023-04-26T13:53:24.434Z,34.39
2023-04-26T13:56:48.940Z,33.33
2023-04-26T14:00:14.242Z,33.32
2023-04-26T14:03:37.030Z,32.37
2023-04-26T14:07:00.579Z,32.68
2023-04-26T14:10:23.639Z,33.01
2023-04-26T14:13:48.737Z,31.45
2023-04-26T14:17:11.471Z,32.39
2023-04-26T14:20:34.578Z,32.39
2023-04-26T14:23:58.130Z,32.66
2023-04-26T14:27:22.014Z,33.50
2023-04-26T14:30:47.656Z,33.41
2023-04-26T14:34:14.592Z,34.65
2023-04-26T14:37:37.549Z,36.25
2023-04-26T14:41:01.945Z,36.63
2023-04-26T14:44:25.299Z,34.63
2023-04-26T14:47:50.858Z,34.54
2023-04-26T14:51:13.809Z,33.26
2023-04-26T14:54:39.705Z,34.08
2023-04-26T14:58:02.976Z,33.48
2023-04-26T15:01:26.252Z,34.35
2023-04-26T15:04:50.965Z,32.28
2023-04-26T15:08:14.982Z,30.41
2023-04-26T15:11:38.380Z,31.19
2023-04-26T15:15:01.964Z,32.45
2023-04-26T15:18:25.880Z,32.69
2023-04-26T15:21:50.840Z,32.50
2023-04-26T15:25:14.054Z,31.96
2023-04-26T15:28:37.522Z,30.89
2023-04-26T15:32:00.872Z,30.65
2023-04-26T15:35:25.303Z,31.19
2023-04-26T15:38:50.547Z,32.28
2023-04-26T15:42:14.120Z,35.04
2023-04-26T15:45:37.286Z,36.40
2023-04-26T15:49:00.455Z,37.11
2023-04-26T15:52:23.612Z,37.37
2023-04-26T15:55:48.318Z,37.79
2023-04-26T15:59:11.586Z,38.39
2023-04-26T16:02:35.102Z,38.42
2023-04-26T16:06:00.722Z,38.68
2023-04-26T16:09:25.931Z,39.33
2023-04-26T16:12:54.025Z,38.36
2023-04-26T16:16:19.910Z,37.70
2023-04-26T16:19:46.016Z,37.58
2023-04-26T16:23:11.779Z,38.30
2023-04-26T16:26:36.776Z,38.24
2023-04-26T16:30:02.378Z,37.48
2023-04-26T16:33:27.563Z,37.79
2023-04-26T16:36:52.228Z,36.95
2023-04-26T16:40:16.695Z,37.88
2023-04-26T16:43:40.779Z,37.74
2023-04-26T16:47:07.158Z,38.05
2023-04-26T16:50:31.386Z,38.66
2023-04-26T16:53:55.262Z,38.49
2023-04-26T16:57:19.216Z,39.57
2023-04-26T17:00:44.408Z,39.62
2023-04-26T17:04:12.944Z,39.24
2023-04-26T17:07:38.337Z,40.00
2023-04-26T17:11:03.254Z,40.32
2023-04-26T17:14:28.165Z,40.28
2023-04-26T17:17:53.141Z,40.32
2023-04-26T17:21:18.836Z,40.02
2023-04-26T17:24:43.335Z,40.35
2023-04-26T17:28:07.928Z,39.94
2023-04-26T17:31:33.388Z,40.61
2023-04-26T17:34:58.959Z,40.54
2023-04-26T17:38:25.003Z,40.44
2023-04-26T17:41:49.303Z,39.99
2023-04-26T17:45:14.785Z,40.06
2023-04-26T17:48:40.235Z,40.38
2023-04-26T17:52:06.146Z,41.35
2023-04-26T17:55:32.119Z,42.17
2023-04-26T17:58:56.525Z,43.23
2023-04-26T18:02:21.985Z,43.43
2023-04-26T18:05:47.580Z,44.08
2023-04-26T18:09:11.666Z,43.94
2023-04-26T18:12:38.569Z,44.29
2023-04-26T18:16:09.182Z,45.10
2023-04-26T18:19:33.917Z,45.46
2023-04-26T18:22:58.680Z,45.61
2023-04-26T18:26:24.623Z,44.95
2023-04-26T18:29:51.127Z,45.56
2023-04-26T18:33:16.805Z,45.31
2023-04-26T18:36:42.126Z,46.21
2023-04-26T18:40:08.118Z,46.44
2023-04-26T18:43:33.340Z,46.84
2023-04-26T18:47:07.812Z,46.88
2023-04-26T18:50:36.148Z,46.98
2023-04-26T18:54:04.376Z,47.52
2023-04-26T18:57:32.164Z,48.08
2023-04-26T19:01:05.602Z,48.80
2023-04-26T19:04:33.556Z,48.83
2023-04-26T19:07:59.812Z,49.04
2023-04-26T19:11:25.262Z,49.09
2023-04-26T19:14:56.264Z,48.61
2023-04-26T19:18:24.358Z,48.82
2023-04-26T19:21:52.434Z,48.69
2023-04-26T19:25:21.407Z,48.23
2023-04-26T19:28:48.078Z,48.73
2023-04-26T19:32:20.066Z,48.83
2023-04-26T19:35:46.774Z,48.53
2023-04-26T19:39:17.253Z,48.25
2023-04-26T19:42:42.250Z,48.75
2023-04-26T19:46:16.377Z,49.13
2023-04-26T19:49:42.943Z,49.63
2023-04-26T19:53:15.657Z,50.67
2023-04-26T19:56:48.930Z,51.09
2023-04-26T20:00:17.204Z,52.55
2023-04-26T20:03:43.098Z,52.69
2023-04-26T20:07:09.749Z,53.66
2023-04-26T20:10:34.659Z,53.92
2023-04-26T20:14:01.455Z,54.31
2023-04-26T20:17:27.882Z,54.78
2023-04-26T20:20:53.517Z,54.49
2023-04-26T20:24:19.015Z,55.12
2023-04-26T20:27:44.181Z,56.32
2023-04-26T20:31:13.662Z,54.46
2023-04-26T20:34:37.944Z,55.94
2023-04-26T20:38:02.887Z,56.43
2023-04-26T20:41:33.265Z,56.60
2023-04-26T20:45:01.884Z,56.08
2023-04-26T20:48:29.449Z,57.04
2023-04-26T20:51:54.592Z,57.09
2023-04-26T20:55:21.423Z,58.54
2023-04-26T20:58:47.259Z,58.33
2023-04-26T21:02:13.094Z,57.86
2023-04-26T21:05:40.848Z,55.44
2023-04-26T21:09:06.056Z,56.39
2023-04-26T21:12:31.626Z,55.72
2023-04-26T21:15:57.415Z,54.43
2023-04-26T21:19:23.436Z,56.04
2023-04-26T21:22:50.304Z,56.13
2023-04-26T21:26:15.536Z,57.05
2023-04-26T21:29:40.120Z,57.17
2023-04-26T21:33:05.932Z,57.98
2023-04-26T21:36:31.457Z,57.70
2023-04-26T21:39:59.607Z,58.22
2023-04-26T21:43:24.070Z,58.79
2023-04-26T21:46:49.681Z,60.19
2023-04-26T21:50:15.027Z,62.44
2023-04-26T21:53:41.600Z,61.71
2023-04-26T21:57:08.745Z,63.52
2023-04-26T22:00:34.656Z,65.54
2023-04-26T22:04:00.954Z,66.48
2023-04-26T22:07:26.224Z,66.10
2023-04-26T22:10:53.081Z,66.19
2023-04-26T22:14:21.273Z,66.14
2023-04-26T22:17:46.175Z,65.54
2023-04-26T22:21:12.011Z,64.68
2023-04-26T22:24:37.816Z,63.97
2023-04-26T22:28:03.544Z,65.75
2023-04-26T22:31:30.346Z,66.42
2023-04-26T22:34:54.688Z,65.76
2023-04-26T22:38:20.766Z,67.25
2023-04-26T22:41:46.698Z,67.56
2023-04-26T22:45:13.566Z,68.44
2023-04-26T22:48:40.616Z,68.20
2023-04-26T22:52:12.097Z,66.83
2023-04-26T22:55:43.466Z,65.89
2023-04-26T22:59:11.209Z,66.83
2023-04-26T23:02:38.242Z,66.98
2023-04-26T23:06:07.797Z,66.75
2023-04-26T23:09:32.983Z,66.50
2023-04-26T23:12:58.936Z,66.96
2023-04-26T23:16:24.035Z,66.37
2023-04-26T23:19:49.953Z,64.13
2023-04-26T23:23:16.626Z,64.53
2023-04-26T23:26:42.856Z,64.01
2023-04-26T23:30:09.820Z,65.05
2023-04-26T23:33:34.669Z,65.62
2023-04-26T23:37:07.763Z,65.85
2023-04-26T23:40:37.661Z,66.73
2023-04-26T23:44:03.108Z,67.46
2023-04-26T23:47:28.921Z,67.30
2023-04-26T23:50:53.575Z,68.17
2023-04-26T23:54:19.892Z,69.37
2023-04-26T23:57:46.631Z,69.58
